Etusivu
METAR-TAF:

METAR-TAF

Lentoasemat :

Cambridge, Englanti

Leveyspiiri: 52-12N, Pituuspiiri: 000-11E, korkeus merenpinnasta: 15 m

Tämänhetkinen sää

Tämä raportti tehtiin 30 minuuttia sitten, kello 08.50 UTC
Tuuli 1 kn idästä/kaakosta
Lämpötila 2°C
Kosteus 93%
Ilmanpaine 1026 hPa
Näkyvyys: 4200 m
Matala sumu

METAR: EGSC 110850Z 11001KT 4200 R23/P2000 MIFG NSC 02/01 Q1026

Aika: 09:20 (09:20 UTC)

Sääennuste

Tämä raportti tehtiin 1 tunti ja 21 minuuttia sitten, kello 07.59 UTC
Ennuste voimassa 11. päivästä klo 09 UTC - 11. päivään klo 18 UTC
Tuuli 2 kn eri suunnista
Näkyvyys 10 km tai enemmän
Hajanaisia pilviä 2500 ft:n korkeudessa
Tulossa
11. päivästä klo 09 UTC - 11. päivään klo 12 UTC
Tuuli 10 kn kaakosta

TAF: EGSC 110759Z 1109/1118 VRB02KT 9999 SCT025 BECMG 1109/1112 14010KT

Säähavainnot ja -ennusteet yli 4000 lentoasemalta (METAR- ja TAF-raportit).

Käytössä olevat sääasemat on merkitty karttaan keltaisilla ja punaisilla pisteillä.

Aseta hiiri pisteen päälle nähdäksesi sääaseman nimen.

Klikkaa sitten nähdäksesi säähavainnot ja -ennusteet.

Kartan vaihtaminen: klikkaa mustalla rastilla varustettuja vihreitä pisteitä, niin voit zoomata sisään; viivalla varustettua vihreää pistettä, niin voit zoomata ulos tai vihreitä nuolia, niin pääset viereisille kartoille.


METAR-TAF: